^^
Station Historical Data
Daily Summary for March 9, 2018 Units:  Both    English   Metric
« Previous Day
Next Day »
Daily Weekly Monthly Yearly Custom
  High: Low: Average:
Temperature: TemperatureF °F /  -17.8 °C 54.7 °F /  12.6 °C 67.9 °F /  19.9 °C
Dew Point: DewpointF °F /  -17.8 °C 20.5 °F /  -6.4 °C 41.9 °F /  5.5 °C
Humidity: Humidity% 8% 45%
Wind Speed: WindSpeedMPHmph /  0km/h - 5.5mph /  8.9km/h
Wind Gust: WindSpeedGustMPHmph /  0km/h - -
Wind- - SSW
Pressure: PressureIn in /  0 hPa 29.68 in /  1005 hPa -
Precipitation: 0.00 in /  0 mm    
Historical Graphs
 
 
Tabular Data for March 9, 2018
Time Temperature Dew Point Pressure Wind Wind Speed Wind Gust Humidity Rainfall Rate (Hourly) solar Conditions
TemperatureF °F /  -17.8 °C DewpointF °F /  -17.8 °C PressureInin /  0hPa Calm     Humidity% HourlyPrecipInin /  0mm SolarRadiationWatts/m^2 W/m2 Conditions
00:02 63.7 °F /  17.6 °C 47.3 °F /  8.5 °C 29.87in /  1011.4hPa SSE 11.0mph /  17.7km/h 12.0mph /  19.3km/h 55% 0.00in /  0mm 0.0 W/m2
00:07 63.5 °F /  17.5 °C 47.5 °F /  8.6 °C 29.87in /  1011.4hPa SSE 10.1mph /  16.3km/h 14.0mph /  22.5km/h 56% 0.00in /  0mm 0.0 W/m2
00:17 63.3 °F /  17.4 °C 46.9 °F /  8.3 °C 29.87in /  1011.4hPa South 12.1mph /  19.5km/h 12.1mph /  19.5km/h 55% 0.00in /  0mm 0.0 W/m2
00:22 63.3 °F /  17.4 °C 47.3 °F /  8.5 °C 29.87in /  1011.4hPa SSE 8.9mph /  14.3km/h 11.0mph /  17.7km/h 56% 0.00in /  0mm 0.0 W/m2
00:27 63.1 °F /  17.3 °C 47.1 °F /  8.4 °C 29.87in /  1011.4hPa South 6.0mph /  9.7km/h 10.0mph /  16.1km/h 56% 0.00in /  0mm 0.0 W/m2
00:32 63.0 °F /  17.2 °C 46.9 °F /  8.3 °C 29.87in /  1011.4hPa South 6.9mph /  11.1km/h 8.0mph /  12.9km/h 56% 0.00in /  0mm 0.0 W/m2
00:37 62.8 °F /  17.1 °C 47.3 °F /  8.5 °C 29.87in /  1011.4hPa South 6.0mph /  9.7km/h 9.0mph /  14.5km/h 57% 0.00in /  0mm 0.0 W/m2
00:42 62.8 °F /  17.1 °C 47.3 °F /  8.5 °C 29.87in /  1011.4hPa South 6.0mph /  9.7km/h 10.0mph /  16.1km/h 57% 0.00in /  0mm 0.0 W/m2
00:47 62.8 °F /  17.1 °C 47.3 °F /  8.5 °C 29.86in /  1011.1hPa South 6.0mph /  9.7km/h 8.0mph /  12.9km/h 57% 0.00in /  0mm 0.0 W/m2
00:52 62.6 °F /  17 °C 46.8 °F /  8.2 °C 29.86in /  1011.1hPa South 6.0mph /  9.7km/h 10.0mph /  16.1km/h 56% 0.00in /  0mm 0.0 W/m2
00:57 62.4 °F /  16.9 °C 46.9 °F /  8.3 °C 29.86in /  1011.1hPa South 8.1mph /  13km/h 10.0mph /  16.1km/h 57% 0.00in /  0mm 0.0 W/m2
01:08 62.2 °F /  16.8 °C 46.8 °F /  8.2 °C 29.86in /  1011.1hPa SSW 8.9mph /  14.3km/h 9.0mph /  14.5km/h 57% 0.00in /  0mm 0.0 W/m2
01:13 62.1 °F /  16.7 °C 47.1 °F /  8.4 °C 29.86in /  1011.1hPa SSW 4.9mph /  7.9km/h 8.0mph /  12.9km/h 58% 0.00in /  0mm 0.0 W/m2
01:18 61.9 °F /  16.6 °C 46.9 °F /  8.3 °C 29.86in /  1011.1hPa SSW 6.9mph /  11.1km/h 10.0mph /  16.1km/h 58% 0.00in /  0mm 0.0 W/m2
01:23 61.9 °F /  16.6 °C 46.9 °F /  8.3 °C 29.85in /  1010.7hPa South 8.1mph /  13km/h 10.0mph /  16.1km/h 58% 0.00in /  0mm 0.0 W/m2
01:28 61.5 °F /  16.4 °C 47.1 °F /  8.4 °C 29.85in /  1010.7hPa SSW 8.9mph /  14.3km/h 10.0mph /  16.1km/h 59% 0.00in /  0mm 0.0 W/m2
01:33 61.3 °F /  16.3 °C 47.3 °F /  8.5 °C 29.85in /  1010.7hPa SSW 8.1mph /  13km/h 10.0mph /  16.1km/h 60% 0.00in /  0mm 0.0 W/m2
01:38 61.2 °F /  16.2 °C 47.1 °F /  8.4 °C 29.85in /  1010.7hPa SSW 6.0mph /  9.7km/h 9.0mph /  14.5km/h 60% 0.00in /  0mm 0.0 W/m2
01:43 61.0 °F /  16.1 °C 46.9 °F /  8.3 °C 29.85in /  1010.7hPa SSW 8.1mph /  13km/h 10.0mph /  16.1km/h 60% 0.00in /  0mm 0.0 W/m2
01:48 61.0 °F /  16.1 °C 46.9 °F /  8.3 °C 29.85in /  1010.7hPa SSW 8.9mph /  14.3km/h 9.0mph /  14.5km/h 60% 0.00in /  0mm 0.0 W/m2
01:54 60.8 °F /  16 °C 46.8 °F /  8.2 °C 29.85in /  1010.7hPa SSW 6.9mph /  11.1km/h 8.0mph /  12.9km/h 60% 0.00in /  0mm 0.0 W/m2
01:59 60.6 °F /  15.9 °C 46.6 °F /  8.1 °C 29.85in /  1010.7hPa SSW 6.0mph /  9.7km/h 7.0mph /  11.3km/h 60% 0.00in /  0mm 0.0 W/m2
02:04 60.4 °F /  15.8 °C 46.9 °F /  8.3 °C 29.85in /  1010.7hPa SSW 6.9mph /  11.1km/h 9.0mph /  14.5km/h 61% 0.00in /  0mm 0.0 W/m2
02:09 60.3 °F /  15.7 °C 46.8 °F /  8.2 °C 29.85in /  1010.7hPa SSW 8.9mph /  14.3km/h 10.0mph /  16.1km/h 61% 0.00in /  0mm 0.0 W/m2
02:14 60.4 °F /  15.8 °C 46.9 °F /  8.3 °C 29.85in /  1010.7hPa SSW 10.1mph /  16.3km/h 10.1mph /  16.3km/h 61% 0.00in /  0mm 0.0 W/m2
02:19 60.4 °F /  15.8 °C 46.9 °F /  8.3 °C 29.85in /  1010.7hPa SSW 6.0mph /  9.7km/h 9.0mph /  14.5km/h 61% 0.00in /  0mm 0.0 W/m2
02:24 60.4 °F /  15.8 °C 46.9 °F /  8.3 °C 29.85in /  1010.7hPa SSW 8.9mph /  14.3km/h 9.0mph /  14.5km/h 61% 0.00in /  0mm 0.0 W/m2
02:34 60.3 °F /  15.7 °C 46.8 °F /  8.2 °C 29.84in /  1010.4hPa SSW 6.0mph /  9.7km/h 9.0mph /  14.5km/h 61% 0.00in /  0mm 0.0 W/m2
02:43 59.9 °F /  15.5 °C 46.8 °F /  8.2 °C 29.84in /  1010.4hPa SSW 4.9mph /  7.9km/h 6.0mph /  9.7km/h 62% 0.00in /  0mm 0.0 W/m2
02:48 59.7 °F /  15.4 °C 46.8 °F /  8.2 °C 29.84in /  1010.4hPa SSW 4.9mph /  7.9km/h 6.0mph /  9.7km/h 62% 0.00in /  0mm 0.0 W/m2
02:53 59.7 °F /  15.4 °C 46.8 °F /  8.2 °C 29.85in /  1010.7hPa SSW 6.0mph /  9.7km/h 6.0mph /  9.7km/h 62% 0.00in /  0mm 0.0 W/m2
02:58 59.5 °F /  15.3 °C 46.6 °F /  8.1 °C 29.85in /  1010.7hPa SSW 4.9mph /  7.9km/h 8.0mph /  12.9km/h 62% 0.00in /  0mm 0.0 W/m2
03:03 59.5 °F /  15.3 °C 46.9 °F /  8.3 °C 29.84in /  1010.4hPa SSW 6.9mph /  11.1km/h 9.0mph /  14.5km/h 63% 0.00in /  0mm 0.0 W/m2
03:13 59.7 °F /  15.4 °C 47.1 °F /  8.4 °C 29.84in /  1010.4hPa SSW 8.1mph /  13km/h 10.0mph /  16.1km/h 63% 0.00in /  0mm 0.0 W/m2
03:18 59.5 °F /  15.3 °C 46.9 °F /  8.3 °C 29.84in /  1010.4hPa SSW 6.9mph /  11.1km/h 10.0mph /  16.1km/h 63% 0.00in /  0mm 0.0 W/m2
03:23 59.4 °F /  15.2 °C 46.8 °F /  8.2 °C 29.84in /  1010.4hPa SSW 6.0mph /  9.7km/h 7.0mph /  11.3km/h 63% 0.00in /  0mm 0.0 W/m2
03:28 59.2 °F /  15.1 °C 46.9 °F /  8.3 °C 29.84in /  1010.4hPa SSW 6.9mph /  11.1km/h 7.0mph /  11.3km/h 64% 0.00in /  0mm 0.0 W/m2
03:39 58.8 °F /  14.9 °C 47.1 °F /  8.4 °C 29.84in /  1010.4hPa SSW 2.9mph /  4.7km/h 4.0mph /  6.4km/h 65% 0.00in /  0mm 0.0 W/m2
03:44 58.6 °F /  14.8 °C 47.3 °F /  8.5 °C 29.84in /  1010.4hPa Calm   3.0mph /  4.8km/h 66% 0.00in /  0mm 0.0 W/m2
03:50 58.5 °F /  14.7 °C 47.1 °F /  8.4 °C 29.85in /  1010.7hPa Calm     66% 0.00in /  0mm 0.0 W/m2
03:55 58.3 °F /  14.6 °C 46.9 °F /  8.3 °C 29.85in /  1010.7hPa Calm     66% 0.00in /  0mm 0.0 W/m2
04:05 57.7 °F /  14.3 °C 47.3 °F /  8.5 °C 29.84in /  1010.4hPa SSW 4.9mph /  7.9km/h 6.0mph /  9.7km/h 68% 0.00in /  0mm 0.0 W/m2
04:10 57.7 °F /  14.3 °C 47.7 °F /  8.7 °C 29.84in /  1010.4hPa SSW 4.9mph /  7.9km/h 6.0mph /  9.7km/h 69% 0.00in /  0mm 0.0 W/m2
04:15 57.9 °F /  14.4 °C 47.8 °F /  8.8 °C 29.85in /  1010.7hPa SSW 6.0mph /  9.7km/h 6.0mph /  9.7km/h 69% 0.00in /  0mm 0.0 W/m2
04:20 57.9 °F /  14.4 °C 47.5 °F /  8.6 °C 29.84in /  1010.4hPa SSW 4.9mph /  7.9km/h 6.0mph /  9.7km/h 68% 0.00in /  0mm 0.0 W/m2
04:25 57.9 °F /  14.4 °C 47.8 °F /  8.8 °C 29.84in /  1010.4hPa SSW 4.9mph /  7.9km/h 7.0mph /  11.3km/h 69% 0.00in /  0mm 0.0 W/m2
04:30 58.1 °F /  14.5 °C 47.7 °F /  8.7 °C 29.84in /  1010.4hPa SSW 4.0mph /  6.4km/h 6.0mph /  9.7km/h 68% 0.00in /  0mm 0.0 W/m2
04:35 57.9 °F /  14.4 °C 47.8 °F /  8.8 °C 29.84in /  1010.4hPa SSW 6.0mph /  9.7km/h 6.0mph /  9.7km/h 69% 0.00in /  0mm 0.0 W/m2
04:45 57.7 °F /  14.3 °C 47.7 °F /  8.7 °C 29.84in /  1010.4hPa SSW 4.9mph /  7.9km/h 7.0mph /  11.3km/h 69% 0.00in /  0mm 0.0 W/m2
04:50 57.6 °F /  14.2 °C 47.8 °F /  8.8 °C 29.84in /  1010.4hPa SSW 4.9mph /  7.9km/h 7.0mph /  11.3km/h 70% 0.00in /  0mm 0.0 W/m2
04:55 57.6 °F /  14.2 °C 47.8 °F /  8.8 °C 29.84in /  1010.4hPa SSW 4.9mph /  7.9km/h 6.0mph /  9.7km/h 70% 0.00in /  0mm 0.0 W/m2
05:05 57.4 °F /  14.1 °C 48.0 °F /  8.9 °C 29.84in /  1010.4hPa SSW 4.0mph /  6.4km/h 5.0mph /  8km/h 71% 0.00in /  0mm 0.0 W/m2
05:10 57.4 °F /  14.1 °C 48.0 °F /  8.9 °C 29.84in /  1010.4hPa SSW 4.0mph /  6.4km/h 6.0mph /  9.7km/h 71% 0.00in /  0mm 0.0 W/m2
05:15 57.2 °F /  14 °C 47.8 °F /  8.8 °C 29.84in /  1010.4hPa SSW 4.9mph /  7.9km/h 7.0mph /  11.3km/h 71% 0.00in /  0mm 0.0 W/m2
05:21 57.0 °F /  13.9 °C 47.7 °F /  8.7 °C 29.84in /  1010.4hPa SSW 4.9mph /  7.9km/h 6.0mph /  9.7km/h 71% 0.00in /  0mm 0.0 W/m2
05:27 56.8 °F /  13.8 °C 47.8 °F /  8.8 °C 29.84in /  1010.4hPa SSW 6.9mph /  11.1km/h 7.0mph /  11.3km/h 72% 0.00in /  0mm 0.0 W/m2
05:33 56.8 °F /  13.8 °C 47.8 °F /  8.8 °C 29.84in /  1010.4hPa SSW 4.9mph /  7.9km/h 7.0mph /  11.3km/h 72% 0.00in /  0mm 0.0 W/m2
05:38 56.8 °F /  13.8 °C 48.2 °F /  9 °C 29.84in /  1010.4hPa SSW 6.0mph /  9.7km/h 8.0mph /  12.9km/h 73% 0.00in /  0mm 0.0 W/m2
05:46 56.8 °F /  13.8 °C 47.8 °F /  8.8 °C 29.84in /  1010.4hPa SSW 6.0mph /  9.7km/h 7.0mph /  11.3km/h 72% 0.00in /  0mm 0.0 W/m2
05:51 56.7 °F /  13.7 °C 47.7 °F /  8.7 °C 29.84in /  1010.4hPa Calm   4.0mph /  6.4km/h 72% 0.00in /  0mm 0.0 W/m2
05:56 56.7 °F /  13.7 °C 47.7 °F /  8.7 °C 29.84in /  1010.4hPa Calm     72% 0.00in /  0mm 0.0 W/m2
06:02 56.5 °F /  13.6 °C 48.0 °F /  8.9 °C 29.84in /  1010.4hPa Calm     73% 0.00in /  0mm 0.0 W/m2
06:09 56.1 °F /  13.4 °C 47.7 °F /  8.7 °C 29.84in /  1010.4hPa Calm     73% 0.00in /  0mm 0.0 W/m2
06:15 55.9 °F /  13.3 °C 47.8 °F /  8.8 °C 29.84in /  1010.4hPa SSW 4.0mph /  6.4km/h 5.0mph /  8km/h 74% 0.00in /  0mm 0.0 W/m2
06:37 55.4 °F /  13 °C 47.3 °F /  8.5 °C 29.85in /  1010.7hPa SSW 2.9mph /  4.7km/h 4.0mph /  6.4km/h 74% 0.00in /  0mm 0.0 W/m2
06:52 54.7 °F /  12.6 °C 46.6 °F /  8.1 °C 29.85in /  1010.7hPa SSW 4.0mph /  6.4km/h 4.0mph /  6.4km/h 74% 0.00in /  0mm 5.0 W/m2
07:44 57.7 °F /  14.3 °C 48.7 °F /  9.3 °C 29.87in /  1011.4hPa Calm     72% 0.00in /  0mm 128.0 W/m2
07:59 59.0 °F /  15 °C 49.3 °F /  9.6 °C 29.87in /  1011.4hPa SSW 4.0mph /  6.4km/h 4.0mph /  6.4km/h 70% 0.00in /  0mm 197.0 W/m2
08:10 59.7 °F /  15.4 °C 49.1 °F /  9.5 °C 29.87in /  1011.4hPa Calm     68% 0.00in /  0mm 244.0 W/m2
09:11 64.0 °F /  17.8 °C 48.9 °F /  9.4 °C 29.87in /  1011.4hPa Calm     58% 0.00in /  0mm 466.0 W/m2
09:27 65.5 °F /  18.6 °C 48.4 °F /  9.1 °C 29.87in /  1011.4hPa Calm     54% 0.00in /  0mm 519.0 W/m2
09:43 66.9 °F /  19.4 °C 47.7 °F /  8.7 °C 29.87in /  1011.4hPa Calm     50% 0.00in /  0mm 566.0 W/m2
10:08 69.4 °F /  20.8 °C 46.6 °F /  8.1 °C 29.86in /  1011.1hPa Calm     44% 0.00in /  0mm 647.0 W/m2
10:23 71.1 °F /  21.7 °C 44.8 °F /  7.1 °C 29.86in /  1011.1hPa Calm     39% 0.00in /  0mm 693.0 W/m2
10:33 72.3 °F /  22.4 °C 43.9 °F /  6.6 °C 29.86in /  1011.1hPa Calm     36% 0.00in /  0mm 717.0 W/m2
10:49 74.3 °F /  23.5 °C 43.3 °F /  6.3 °C 29.85in /  1010.7hPa Calm     33% 0.00in /  0mm 754.0 W/m2
11:20 77.7 °F /  25.4 °C 40.1 °F /  4.5 °C 29.84in /  1010.4hPa WSW 6.9mph /  11.1km/h 7.0mph /  11.3km/h 26% 0.00in /  0mm 817.0 W/m2
11:36 78.4 °F /  25.8 °C 40.6 °F /  4.8 °C 29.84in /  1010.4hPa WSW 6.0mph /  9.7km/h 7.0mph /  11.3km/h 26% 0.00in /  0mm 840.0 W/m2
12:39 80.4 °F /  26.9 °C 40.3 °F /  4.6 °C 29.82in /  1009.7hPa West 6.9mph /  11.1km/h 8.0mph /  12.9km/h 24% 0.00in /  0mm 909.0 W/m2
13:37 82.4 °F /  28 °C 38.5 °F /  3.6 °C 29.79in /  1008.7hPa WNW 8.1mph /  13km/h 10.0mph /  16.1km/h 21% 0.00in /  0mm 907.0 W/m2
13:51 83.5 °F /  28.6 °C 38.1 °F /  3.4 °C 29.78in /  1008.4hPa Calm   8.0mph /  12.9km/h 20% 0.00in /  0mm 893.0 W/m2
14:05 83.8 °F /  28.8 °C 34.3 °F /  1.3 °C 29.78in /  1008.4hPa Calm   2.0mph /  3.2km/h 17% 0.00in /  0mm 879.0 W/m2
14:12 84.7 °F /  29.3 °C 36.5 °F /  2.5 °C 29.78in /  1008.4hPa Calm     18% 0.00in /  0mm 865.0 W/m2
14:22 84.9 °F /  29.4 °C 36.7 °F /  2.6 °C 29.76in /  1007.7hPa NW 8.1mph /  13km/h 12.0mph /  19.3km/h 18% 0.00in /  0mm 851.0 W/m2
14:27 85.3 °F /  29.6 °C 35.6 °F /  2 °C 29.76in /  1007.7hPa NW 8.9mph /  14.3km/h 11.0mph /  17.7km/h 17% 0.00in /  0mm 842.0 W/m2
14:32 84.9 °F /  29.4 °C 36.7 °F /  2.6 °C 29.76in /  1007.7hPa NW 8.9mph /  14.3km/h 13.0mph /  20.9km/h 18% 0.00in /  0mm 831.0 W/m2
14:57 86.4 °F /  30.2 °C 36.3 °F /  2.4 °C 29.75in /  1007.3hPa NW 6.9mph /  11.1km/h 12.0mph /  19.3km/h 17% 0.00in /  0mm 795.0 W/m2
15:12 86.7 °F /  30.4 °C 36.7 °F /  2.6 °C 29.74in /  1007hPa Calm     17% 0.00in /  0mm 763.0 W/m2
16:03 87.8 °F /  31 °C 34.3 °F /  1.3 °C 29.72in /  1006.3hPa NW 6.0mph /  9.7km/h 11.0mph /  17.7km/h 15% 0.00in /  0mm 638.0 W/m2
16:17 88.3 °F /  31.3 °C 33.1 °F /  0.6 °C 29.71in /  1006hPa NW 6.9mph /  11.1km/h 15.0mph /  24.1km/h 14% 0.00in /  0mm 589.0 W/m2
16:29 88.2 °F /  31.2 °C 32.9 °F /  0.5 °C 29.71in /  1006hPa Calm     14% 0.00in /  0mm 554.0 W/m2
16:44 88.9 °F /  31.6 °C 29.7 °F /  -1.3 °C 29.70in /  1005.6hPa NW 4.9mph /  7.9km/h 7.0mph /  11.3km/h 12% 0.00in /  0mm 506.0 W/m2
17:00 88.9 °F /  31.6 °C 29.7 °F /  -1.3 °C 29.70in /  1005.6hPa NW 0.9mph /  1.4km/h 1.0mph /  1.6km/h 12% 0.00in /  0mm 455.0 W/m2
17:15 88.9 °F /  31.6 °C 25.3 °F /  -3.7 °C 29.70in /  1005.6hPa NW 4.9mph /  7.9km/h 8.0mph /  12.9km/h 10% 0.00in /  0mm 408.0 W/m2
17:29 89.2 °F /  31.8 °C 25.5 °F /  -3.6 °C 29.69in /  1005.3hPa NW 6.9mph /  11.1km/h 11.0mph /  17.7km/h 10% 0.00in /  0mm 355.0 W/m2
17:45 89.6 °F /  32 °C 25.9 °F /  -3.4 °C 29.69in /  1005.3hPa NW 4.9mph /  7.9km/h 7.0mph /  11.3km/h 10% 0.00in /  0mm 299.0 W/m2
18:42 89.6 °F /  32 °C 20.5 °F /  -6.4 °C 29.68in /  1005hPa Calm     8% 0.00in /  0mm 79.0 W/m2
18:56 88.0 °F /  31.1 °C 22.1 °F /  -5.5 °C 29.68in /  1005hPa Calm     9% 0.00in /  0mm 18.0 W/m2
19:06 87.3 °F /  30.7 °C 24.1 °F /  -4.4 °C 29.68in /  1005hPa Calm     10% 0.00in /  0mm 9.0 W/m2
19:23 85.8 °F /  29.9 °C 23.0 °F /  -5 °C 29.68in /  1005hPa Calm     10% 0.00in /  0mm 0.0 W/m2
19:38 84.9 °F /  29.4 °C 26.6 °F /  -3 °C 29.68in /  1005hPa West 6.0mph /  9.7km/h 12.0mph /  19.3km/h 12% 0.00in /  0mm 0.0 W/m2
19:52 83.5 °F /  28.6 °C 29.3 °F /  -1.5 °C 29.70in /  1005.6hPa South 13.0mph /  20.9km/h 17.0mph /  27.4km/h 14% 0.00in /  0mm 0.0 W/m2
20:07 82.4 °F /  28 °C 31.6 °F /  -0.2 °C 29.70in /  1005.6hPa South 6.9mph /  11.1km/h 13.0mph /  20.9km/h 16% 0.00in /  0mm 0.0 W/m2
20:22 81.3 °F /  27.4 °C 36.5 °F /  2.5 °C 29.70in /  1005.6hPa South 14.1mph /  22.7km/h 18.0mph /  29km/h 20% 0.00in /  0mm 0.0 W/m2
20:52 80.2 °F /  26.8 °C 35.6 °F /  2 °C 29.72in /  1006.3hPa South 8.9mph /  14.3km/h 13.0mph /  20.9km/h 20% 0.00in /  0mm 0.0 W/m2
21:39 78.1 °F /  25.6 °C 40.5 °F /  4.7 °C 29.74in /  1007hPa SSW 11.0mph /  17.7km/h 16.0mph /  25.7km/h 26% 0.00in /  0mm 0.0 W/m2
21:51 77.2 °F /  25.1 °C 39.6 °F /  4.2 °C 29.74in /  1007hPa SSW 8.1mph /  13km/h 14.0mph /  22.5km/h 26% 0.00in /  0mm 0.0 W/m2
22:01 76.8 °F /  24.9 °C 39.4 °F /  4.1 °C 29.74in /  1007hPa SSW 11.0mph /  17.7km/h 14.0mph /  22.5km/h 26% 0.00in /  0mm 0.0 W/m2
22:09 76.3 °F /  24.6 °C 38.8 °F /  3.8 °C 29.74in /  1007hPa SSW 11.0mph /  17.7km/h 12.0mph /  19.3km/h 26% 0.00in /  0mm 0.0 W/m2
22:18 75.9 °F /  24.4 °C 38.7 °F /  3.7 °C 29.75in /  1007.3hPa SSW 12.1mph /  19.5km/h 12.1mph /  19.5km/h 26% 0.00in /  0mm 0.0 W/m2
22:23 75.7 °F /  24.3 °C 38.5 °F /  3.6 °C 29.75in /  1007.3hPa SSW 8.9mph /  14.3km/h 13.0mph /  20.9km/h 26% 0.00in /  0mm 0.0 W/m2
22:28 75.7 °F /  24.3 °C 38.5 °F /  3.6 °C 29.75in /  1007.3hPa SSW 8.1mph /  13km/h 10.0mph /  16.1km/h 26% 0.00in /  0mm 0.0 W/m2
22:33 75.6 °F /  24.2 °C 38.3 °F /  3.5 °C 29.75in /  1007.3hPa SSW 10.1mph /  16.3km/h 14.0mph /  22.5km/h 26% 0.00in /  0mm 0.0 W/m2
22:38 75.4 °F /  24.1 °C 38.1 °F /  3.4 °C 29.75in /  1007.3hPa SSW 12.1mph /  19.5km/h 13.0mph /  20.9km/h 26% 0.00in /  0mm 0.0 W/m2
22:48 74.7 °F /  23.7 °C 37.6 °F /  3.1 °C 29.75in /  1007.3hPa SSW 6.9mph /  11.1km/h 11.0mph /  17.7km/h 26% 0.00in /  0mm 0.0 W/m2
22:53 74.5 °F /  23.6 °C 37.4 °F /  3 °C 29.75in /  1007.3hPa SSW 10.1mph /  16.3km/h 10.1mph /  16.3km/h 26% 0.00in /  0mm 0.0 W/m2
22:58 74.1 °F /  23.4 °C 37.0 °F /  2.8 °C 29.75in /  1007.3hPa SSW 8.1mph /  13km/h 10.0mph /  16.1km/h 26% 0.00in /  0mm 0.0 W/m2
23:03 73.8 °F /  23.2 °C 36.7 °F /  2.6 °C 29.75in /  1007.3hPa SSW 8.1mph /  13km/h 8.1mph /  13km/h 26% 0.00in /  0mm 0.0 W/m2
23:13 73.6 °F /  23.1 °C 36.5 °F /  2.5 °C 29.75in /  1007.3hPa SSW 6.9mph /  11.1km/h 10.0mph /  16.1km/h 26% 0.00in /  0mm 0.0 W/m2
23:18 73.2 °F /  22.9 °C 36.3 °F /  2.4 °C 29.75in /  1007.3hPa SSW 6.0mph /  9.7km/h 9.0mph /  14.5km/h 26% 0.00in /  0mm 0.0 W/m2
23:23 73.0 °F /  22.8 °C 36.1 °F /  2.3 °C 29.75in /  1007.3hPa SSW 4.0mph /  6.4km/h 8.0mph /  12.9km/h 26% 0.00in /  0mm 0.0 W/m2
23:33 72.9 °F /  22.7 °C 36.9 °F /  2.7 °C 29.75in /  1007.3hPa SSW 6.9mph /  11.1km/h 9.0mph /  14.5km/h 27% 0.00in /  0mm 0.0 W/m2
23:38 72.9 °F /  22.7 °C 36.9 °F /  2.7 °C 29.75in /  1007.3hPa SSW 4.9mph /  7.9km/h 9.0mph /  14.5km/h 27% 0.00in /  0mm 0.0 W/m2
23:44 72.5 °F /  22.5 °C 37.6 °F /  3.1 °C 29.75in /  1007.3hPa SSW 8.1mph /  13km/h 9.0mph /  14.5km/h 28% 0.00in /  0mm 0.0 W/m2
23:49 72.3 °F /  22.4 °C 37.4 °F /  3 °C 29.75in /  1007.3hPa SSW 8.9mph /  14.3km/h 9.0mph /  14.5km/h 28% 0.00in /  0mm 0.0 W/m2
23:58 72.1 °F /  22.3 °C 37.2 °F /  2.9 °C 29.76in /  1007.7hPa SSW 6.0mph /  9.7km/h 9.0mph /  14.5km/h 28% 0.00in /  0mm 0.0 W/m2
Canyon Roadhouse, Fishriver Canyon, Namibia
Compliments of Weather Underground - 2.25 mb